Time;durP1;ratioP1;P1;durP2;ratioP2;P2;SDS_P1;SDS_P2;PMS_P1;PMS_P2;Temp;Humidity;BMP_temperature;BMP_pressure;BME280_temperature;BME280_humidity;BME280_pressure;Samples;Min_cycle;Max_cycle;Signal;HPM_P1;HPM_P2
2023/01/05 00:01:43;;;;;;;0.38;0.20;;;;;;;12.20;66.73;99519.88;5143279;28;20070;-71
2023/01/05 00:04:34;;;;;;;0.95;0.20;;;;;;;11.97;67.36;99533.44;5143716;28;20540;-70
2023/01/05 00:07:24;;;;;;;0.22;0.20;;;;;;;12.11;66.48;99521.53;5143242;28;20243;-71
2023/01/05 00:22:29;;;;;;;0.50;0.20;;;;;;;12.04;66.55;99507.16;5142008;28;20125;-71
2023/01/05 00:22:52;;;;;;;1.35;0.20;;;;;;;12.48;66.23;99512.81;5130345;28;20501;-71
2023/01/05 00:25:43;;;;;;;0.32;0.20;;;;;;;12.40;65.83;99499.41;5142173;28;20532;-71
2023/01/05 00:28:33;;;;;;;0.25;0.17;;;;;;;12.28;67.13;99511.19;5142035;28;20053;-71
2023/01/05 00:31:23;;;;;;;0.38;0.22;;;;;;;12.56;65.72;99509.47;5143053;28;20062;-71
2023/01/05 00:34:13;;;;;;;0.60;0.30;;;;;;;12.58;65.52;99503.03;5142558;28;20058;-71
2023/01/05 00:37:03;;;;;;;1.38;0.35;;;;;;;12.59;65.15;99512.66;5141719;28;20054;-71
2023/01/05 00:39:54;;;;;;;1.13;0.32;;;;;;;12.66;64.80;99500.47;5142426;28;20061;-71
2023/01/05 00:42:44;;;;;;;0.40;0.20;;;;;;;12.60;65.79;99497.53;5140998;28;20654;-71
2023/01/05 00:45:34;;;;;;;0.32;0.25;;;;;;;12.65;64.82;99501.47;5140442;28;20059;-72
2023/01/05 00:48:25;;;;;;;0.25;0.25;;;;;;;12.60;65.25;99506.34;5142341;28;20094;-72
2023/01/05 00:51:15;;;;;;;0.40;0.15;;;;;;;13.00;63.50;99491.09;5139480;28;20062;-71
2023/01/05 00:54:05;;;;;;;0.50;0.20;;;;;;;12.76;64.82;99513.75;5138715;28;20145;-72
2023/01/05 00:56:55;;;;;;;0.93;0.20;;;;;;;12.53;64.84;99496.44;5141906;28;20682;-71
2023/01/05 00:59:46;;;;;;;0.95;0.30;;;;;;;12.61;65.39;99501.88;5140132;28;20077;-71
2023/01/05 01:02:36;;;;;;;0.50;0.20;;;;;;;12.68;65.64;99514.47;5139990;28;20057;-72
2023/01/05 01:05:26;;;;;;;3.17;0.50;;;;;;;12.40;65.94;99500.25;5142488;28;20428;-71
2023/01/05 01:08:19;;;;;;;0.30;0.20;;;;;;;12.76;65.56;99494.28;5127845;28;20097;-71
2023/01/05 01:11:09;;;;;;;0.40;0.20;;;;;;;12.96;63.85;99492.38;5142344;28;20069;-71
2023/01/05 01:13:59;;;;;;;0.22;0.10;;;;;;;12.78;64.26;99505.59;5140016;28;20050;-72
2023/01/05 01:16:49;;;;;;;0.40;0.20;;;;;;;13.09;63.54;99504.38;5121557;29;20059;-71
2023/01/05 01:19:40;;;;;;;0.47;0.28;;;;;;;12.55;65.13;99492.66;5121091;29;20418;-71
2023/01/05 01:22:30;;;;;;;0.20;0.20;;;;;;;12.81;64.86;99497.31;5141426;28;20062;-71
2023/01/05 01:25:20;;;;;;;0.82;0.20;;;;;;;12.43;66.01;99485.84;5141090;28;20058;-71
2023/01/05 01:28:11;;;;;;;0.57;0.10;;;;;;;12.78;65.39;99492.28;5140471;28;20148;-71
2023/01/05 01:31:01;;;;;;;0.13;0.10;;;;;;;12.95;64.52;99486.22;5121560;29;20417;-71
2023/01/05 01:33:51;;;;;;;1.00;0.20;;;;;;;12.79;65.03;99473.53;5122142;29;20118;-71
2023/01/05 01:36:42;;;;;;;0.20;0.10;;;;;;;12.80;65.31;99464.56;5120714;29;20062;-71
2023/01/05 01:39:34;;;;;;;0.45;0.10;;;;;;;12.60;65.92;99482.41;5120931;29;20054;-71
2023/01/05 01:42:28;;;;;;;0.32;0.10;;;;;;;12.47;66.08;99457.97;5143506;28;20066;-71
2023/01/05 01:45:24;;;;;;;0.32;0.13;;;;;;;12.74;65.77;99497.06;5144903;28;20082;-71
2023/01/05 01:48:17;;;;;;;0.30;0.15;;;;;;;12.88;64.64;99485.09;5146121;28;20062;-71
2023/01/05 01:51:21;;;;;;;0.35;0.20;;;;;;;12.85;64.82;99466.81;5144559;28;20070;-72
2023/01/05 01:54:14;;;;;;;;;;;;;;;12.82;65.59;99496.38;5144656;28;20061;-71
2023/01/05 01:57:04;;;;;;;0.55;0.17;;;;;;;12.93;65.55;99498.81;5130806;28;19929;-71
2023/01/05 01:59:58;;;;;;;1.38;0.10;;;;;;;12.90;65.57;99502.63;5144670;28;20417;-71
2023/01/05 02:02:52;;;;;;;1.23;0.20;;;;;;;13.22;64.37;99489.88;5144904;28;20137;-72
2023/01/05 02:05:44;;;;;;;0.17;0.17;;;;;;;13.07;64.61;99489.50;5144497;28;20059;-71
2023/01/05 02:08:35;;;;;;;0.40;0.10;;;;;;;13.29;63.97;99489.16;5144555;28;20058;-72
2023/01/05 02:11:53;;;;;;;0.10;0.10;;;;;;;13.20;64.21;99486.50;5144330;28;20131;-72
2023/01/05 02:15:04;;;;;;;0.10;0.10;;;;;;;13.24;64.45;99490.53;5144293;28;20138;-72
2023/01/05 02:18:06;;;;;;;0.13;0.10;;;;;;;13.33;63.74;99476.38;5144927;28;20149;-72
2023/01/05 02:21:08;;;;;;;0.65;0.05;;;;;;;13.55;63.07;99469.78;5153923;28;20057;-72
2023/01/05 02:24:50;;;;;;;0.10;0.10;;;;;;;13.58;62.96;99482.81;5141258;28;20527;-72
2023/01/05 02:27:50;;;;;;;1.13;0.10;;;;;;;13.30;64.19;99476.69;5124174;29;20083;-72
2023/01/05 02:31:06;;;;;;;0.10;0.10;;;;;;;13.40;63.74;99469.47;5124972;29;20066;-72
2023/01/05 02:34:22;;;;;;;0.00;0.00;;;;;;;13.65;63.06;99467.91;5111404;29;20047;-72
2023/01/05 02:37:47;;;;;;;0.30;0.10;;;;;;;13.34;64.38;99470.06;5134255;28;20057;-72
2023/01/05 02:40:45;;;;;;;0.17;0.10;;;;;;;13.46;63.91;99468.88;5142072;28;20125;-72
2023/01/05 02:43:36;;;;;;;0.00;0.00;;;;;;;13.66;62.44;99458.06;5143987;28;20062;-72
2023/01/05 02:46:27;;;;;;;0.20;0.10;;;;;;;13.30;64.28;99463.34;5143952;28;20085;-72
2023/01/05 02:49:20;;;;;;;0.10;0.10;;;;;;;13.55;63.25;99473.28;5130587;28;20137;-72
2023/01/05 02:52:11;;;;;;;1.20;0.00;;;;;;;13.39;64.24;99462.47;5141913;28;20205;-71
2023/01/05 02:55:07;;;;;;;0.20;0.10;;;;;;;13.34;63.97;99472.72;5141796;28;20185;-71
2023/01/05 02:58:04;;;;;;;0.10;0.10;;;;;;;13.24;64.24;99462.13;5142942;28;20057;-72
2023/01/05 03:01:11;;;;;;;0.10;0.00;;;;;;;13.43;63.94;99457.66;5143496;28;20662;-71
2023/01/05 03:04:12;;;;;;;0.20;0.10;;;;;;;13.18;64.23;99441.41;5145188;28;20118;-71
2023/01/05 03:07:11;;;;;;;0.05;0.05;;;;;;;13.13;64.88;99462.31;5143708;28;20061;-72
2023/01/05 03:13:40;;;;;;;0.75;0.10;;;;;;;13.29;64.48;99459.88;5143661;28;20504;-71
2023/01/05 03:16:32;;;;;;;0.17;0.08;;;;;;;13.06;65.06;99467.38;5142928;28;20098;-72
2023/01/05 03:19:38;;;;;;;0.32;0.10;;;;;;;13.45;64.08;99456.53;5143311;28;20101;-71
2023/01/05 03:35:40;;;;;;;0.10;0.05;;;;;;;12.73;66.78;99484.75;5142888;28;20457;-72
2023/01/05 03:38:37;;;;;;;0.10;0.00;;;;;;;12.93;66.21;99475.72;5142769;28;20057;-72
2023/01/05 03:41:29;;;;;;;0.40;0.10;;;;;;;12.59;66.87;99467.44;5126688;28;20278;-71
2023/01/05 03:44:20;;;;;;;0.30;0.10;;;;;;;12.35;67.48;99456.44;5142556;28;20061;-71
2023/01/05 03:47:12;;;;;;;0.00;0.00;;;;;;;12.97;66.35;99468.25;5142590;28;20560;-71
2023/01/05 03:50:05;;;;;;;0.00;0.00;;;;;;;12.83;66.54;99474.91;5142415;28;20098;-71
2023/01/05 03:52:55;;;;;;;0.40;0.10;;;;;;;12.70;67.11;99471.75;5143812;28;20053;-71
2023/01/05 03:55:45;;;;;;;0.80;0.00;;;;;;;13.23;66.10;99475.56;5141658;28;20050;-71
2023/01/05 03:58:36;;;;;;;0.47;0.10;;;;;;;12.82;67.05;99473.25;5142381;28;20058;-71
2023/01/05 04:01:26;;;;;;;0.10;0.08;;;;;;;12.52;68.88;99466.34;5142815;28;20153;-72
2023/01/05 04:04:18;;;;;;;0.08;0.08;;;;;;;12.92;66.90;99444.75;5141304;28;20058;-71
2023/01/05 04:07:09;;;;;;;0.10;0.00;;;;;;;13.09;66.44;99463.59;5128663;28;20076;-71
2023/01/05 04:10:00;;;;;;;0.05;0.00;;;;;;;12.34;69.49;99466.25;5142297;28;20051;-71
2023/01/05 04:12:51;;;;;;;0.00;0.00;;;;;;;11.95;72.24;99461.00;5122169;29;20058;-71
2023/01/05 04:15:42;;;;;;;0.00;0.00;;;;;;;12.09;71.54;99461.56;5122115;29;20047;-71
2023/01/05 04:18:33;;;;;;;0.00;0.00;;;;;;;12.09;72.10;99458.91;5121951;29;20101;-71
2023/01/05 04:21:25;;;;;;;0.00;0.00;;;;;;;12.49;70.73;99466.66;5121965;29;20055;-72
2023/01/05 04:24:17;;;;;;;0.73;0.10;;;;;;;12.83;68.93;99461.59;5134766;28;20055;-72
2023/01/05 04:27:08;;;;;;;0.10;0.10;;;;;;;13.07;68.09;99474.38;5122126;28;20209;-71
2023/01/05 04:30:01;;;;;;;0.22;0.00;;;;;;;13.17;68.16;99480.47;5141611;28;20047;-71
2023/01/05 04:32:53;;;;;;;0.00;0.00;;;;;;;13.12;68.95;99472.13;5141819;28;20114;-71
2023/01/05 04:35:43;;;;;;;1.13;0.03;;;;;;;12.51;71.16;99467.31;5141586;28;20161;-71
2023/01/05 04:38:34;;;;;;;0.00;0.00;;;;;;;12.64;70.52;99474.97;5141227;28;20457;-72
2023/01/05 04:41:24;;;;;;;0.00;0.00;;;;;;;12.72;71.25;99468.97;5141279;28;20065;-71
2023/01/05 04:44:15;;;;;;;0.00;0.00;;;;;;;12.54;72.14;99488.31;5142956;28;20058;-71
2023/01/05 04:47:06;;;;;;;2.90;0.05;;;;;;;12.86;71.73;99479.94;5141793;28;20061;-71
2023/01/05 04:50:02;;;;;;;0.52;0.15;;;;;;;12.10;75.09;99493.28;5128471;28;20109;-71
2023/01/05 04:52:52;;;;;;;0.10;0.05;;;;;;;12.39;74.44;99495.91;5140607;28;20651;-71
2023/01/05 04:55:45;;;;;;;0.65;0.00;;;;;;;11.57;77.34;99488.38;5140683;28;20053;-71
2023/01/05 04:58:35;;;;;;;0.20;0.10;;;;;;;12.30;75.78;99496.78;5137046;28;20058;-71
2023/01/05 05:01:26;;;;;;;0.00;0.00;;;;;;;12.31;75.50;99486.97;5140848;28;20197;-71
2023/01/05 05:04:18;;;;;;;0.00;0.00;;;;;;;11.61;78.14;99495.06;5141622;28;20061;-71
2023/01/05 05:07:11;;;;;;;0.08;0.00;;;;;;;11.53;77.83;99479.84;5141493;28;20086;-71
2023/01/05 05:10:01;;;;;;;0.00;0.00;;;;;;;11.86;76.51;99503.53;5141354;28;20053;-71
2023/01/05 05:12:52;;;;;;;0.00;0.00;;;;;;;11.73;77.47;99509.06;5138600;28;20054;-71
2023/01/05 05:15:44;;;;;;;0.10;0.00;;;;;;;11.82;76.78;99502.94;5140836;28;20113;-71
2023/01/05 05:18:34;;;;;;;0.30;0.10;;;;;;;12.14;75.73;99515.94;5141450;28;20469;-71
2023/01/05 05:21:26;;;;;;;0.10;0.10;;;;;;;11.61;76.55;99516.31;5140955;28;20058;-71
2023/01/05 05:24:17;;;;;;;0.10;0.00;;;;;;;11.14;79.18;99507.28;5141260;28;20124;-72
2023/01/05 05:27:08;;;;;;;0.73;0.08;;;;;;;11.62;77.61;99512.72;5140787;28;20054;-71
2023/01/05 05:29:58;;;;;;;0.03;0.00;;;;;;;11.51;78.08;99529.59;5141577;28;20057;-71
2023/01/05 05:32:48;;;;;;;2.05;0.10;;;;;;;10.82;80.63;99529.47;5142058;28;20532;-71
2023/01/05 05:35:39;;;;;;;0.20;0.10;;;;;;;11.20;80.17;99528.81;5141771;28;20059;-71
2023/01/05 05:38:29;;;;;;;0.20;0.20;;;;;;;11.49;77.97;99531.56;5142007;28;20192;-72
2023/01/05 05:41:19;;;;;;;0.20;0.20;;;;;;;11.65;78.03;99541.63;5134123;28;20090;-72
2023/01/05 05:44:09;;;;;;;0.65;0.10;;;;;;;11.38;78.53;99552.88;5142039;28;20077;-72
2023/01/05 05:46:59;;;;;;;0.30;0.13;;;;;;;10.84;79.86;99545.28;5140891;28;20086;-72
2023/01/05 05:49:50;;;;;;;0.28;0.20;;;;;;;11.18;80.86;99561.75;5141953;28;20065;-71
2023/01/05 05:52:40;;;;;;;1.98;0.40;;;;;;;11.28;78.58;99547.53;5141906;28;20055;-72
2023/01/05 05:55:30;;;;;;;0.50;0.20;;;;;;;11.09;79.80;99563.38;5140753;28;20221;-72
2023/01/05 05:58:20;;;;;;;2.05;0.30;;;;;;;11.34;79.09;99559.44;5141705;28;20125;-72
2023/01/05 06:01:10;;;;;;;0.80;0.20;;;;;;;11.49;78.31;99571.38;5141648;28;20050;-72
2023/01/05 06:04:01;;;;;;;2.53;0.80;;;;;;;10.80;79.71;99558.81;5142188;28;20481;-72
2023/01/05 06:06:51;;;;;;;2.78;0.40;;;;;;;10.81;80.45;99581.69;5141964;28;20428;-72
2023/01/05 06:09:41;;;;;;;3.88;0.60;;;;;;;11.04;79.45;99584.19;5140808;28;20181;-72
2023/01/05 06:12:31;;;;;;;1.50;0.55;;;;;;;10.87;79.89;99595.44;5138954;28;20061;-72
2023/01/05 06:15:22;;;;;;;5.35;0.98;;;;;;;10.98;80.75;99592.69;5141277;28;20058;-72
2023/01/05 06:18:12;;;;;;;5.60;0.85;;;;;;;10.63;81.96;99604.50;5141809;28;20079;-72
2023/01/05 06:21:02;;;;;;;3.20;0.80;;;;;;;10.80;81.75;99609.19;5141506;28;20047;-72
2023/01/05 06:23:53;;;;;;;5.55;1.10;;;;;;;10.65;81.01;99591.09;5141785;28;20055;-72
2023/01/05 06:26:44;;;;;;;3.53;1.20;;;;;;;10.41;81.41;99572.78;5137518;28;20156;-72
2023/01/05 06:29:34;;;;;;;6.55;1.00;;;;;;;10.54;81.27;99592.00;5144739;28;20081;-72
2023/01/05 06:32:24;;;;;;;4.22;1.17;;;;;;;10.95;80.14;99622.13;5145340;28;20523;-71
2023/01/05 06:35:15;;;;;;;6.25;1.20;;;;;;;11.17;78.89;99621.13;5143432;28;20061;-71
2023/01/05 06:38:05;;;;;;;5.20;1.23;;;;;;;11.69;77.08;99617.44;5144636;28;20065;-72
2023/01/05 06:40:56;;;;;;;4.40;1.00;;;;;;;11.47;76.88;99628.25;5143829;28;20680;-71
2023/01/05 06:43:46;;;;;;;6.50;1.30;;;;;;;11.44;77.46;99623.22;5144572;28;20049;-71
2023/01/05 06:46:36;;;;;;;5.93;1.20;;;;;;;11.41;76.69;99621.66;5144538;28;20054;-71
2023/01/05 06:49:27;;;;;;;5.95;1.30;;;;;;;11.46;76.40;99630.06;5144790;28;20049;-71
2023/01/05 06:52:17;;;;;;;5.30;1.48;;;;;;;11.51;76.07;99649.09;5144249;28;20047;-71
2023/01/05 06:55:09;;;;;;;5.80;1.40;;;;;;;11.37;76.49;99645.97;5144374;28;20054;-71
2023/01/05 06:57:59;;;;;;;3.65;1.30;;;;;;;11.55;75.94;99646.16;5142801;28;20113;-71
2023/01/05 07:00:53;;;;;;;3.83;0.90;;;;;;;11.79;74.65;99651.13;5144093;28;20050;-71
2023/01/05 07:03:43;;;;;;;6.35;1.13;;;;;;;11.95;74.21;99657.66;5144249;28;20062;-71
2023/01/05 07:06:34;;;;;;;6.38;1.17;;;;;;;11.65;75.47;99662.97;5144573;28;20070;-70
2023/01/05 07:09:24;;;;;;;8.98;1.55;;;;;;;11.21;75.35;99657.91;5143973;28;20073;-71
2023/01/05 07:12:16;;;;;;;9.40;1.60;;;;;;;11.76;74.79;99658.41;5128299;28;20086;-71
2023/01/05 07:15:07;;;;;;;3.55;1.20;;;;;;;11.55;74.43;99664.75;5143702;28;20050;-71
2023/01/05 07:17:57;;;;;;;9.15;1.38;;;;;;;11.80;74.59;99658.97;5143684;28;20153;-71
2023/01/05 07:20:47;;;;;;;4.30;1.45;;;;;;;11.75;73.25;99640.81;5144566;28;20113;-71
2023/01/05 07:23:37;;;;;;;10.80;1.58;;;;;;;11.65;74.54;99660.31;5164073;28;20056;-71
2023/01/05 07:26:27;;;;;;;7.43;1.38;;;;;;;11.95;73.43;99672.75;5162989;28;20053;-71
2023/01/05 07:29:17;;;;;;;5.72;1.70;;;;;;;11.73;74.18;99668.47;5152698;28;20054;-71
2023/01/05 07:32:07;;;;;;;8.50;1.60;;;;;;;11.72;73.07;99672.94;5141219;28;20055;-71
2023/01/05 07:34:57;;;;;;;6.18;1.65;;;;;;;11.22;74.70;99669.34;5143453;28;20115;-70
2023/01/05 07:37:48;;;;;;;12.82;1.83;;;;;;;11.80;73.17;99658.16;5142286;28;20054;-71
2023/01/05 07:40:38;;;;;;;5.20;1.40;;;;;;;11.66;72.92;99652.22;5143834;28;20047;-71
2023/01/05 07:43:28;;;;;;;8.63;1.77;;;;;;;11.11;76.36;99672.91;5142120;28;20057;-71
2023/01/05 07:46:19;;;;;;;5.35;1.48;;;;;;;11.50;74.71;99668.66;5143397;28;20612;-71
2023/01/05 07:49:09;;;;;;;5.45;1.40;;;;;;;11.54;74.77;99679.84;5143537;28;20672;-71
2023/01/05 07:51:59;;;;;;;8.40;1.52;;;;;;;11.21;74.92;99671.16;5142888;28;20493;-71
2023/01/05 07:54:49;;;;;;;5.50;1.42;;;;;;;11.34;74.54;99680.75;5142325;28;20488;-71
2023/01/05 07:57:39;;;;;;;7.43;1.33;;;;;;;11.70;73.48;99684.69;5139369;28;20320;-70
2023/01/05 08:00:29;;;;;;;12.50;1.42;;;;;;;11.28;74.96;99696.22;5137516;28;20066;-71
2023/01/05 08:03:19;;;;;;;9.85;1.70;;;;;;;11.97;71.91;99700.03;5137850;28;20057;-71
2023/01/05 08:06:16;;;;;;;9.02;1.27;;;;;;;11.93;72.53;99690.66;5136405;28;20059;-71
2023/01/05 08:12:15;;;;;;;5.13;1.30;;;;;;;12.12;71.96;99716.44;5142790;28;20059;-71
2023/01/05 08:15:05;;;;;;;6.40;1.30;;;;;;;11.76;73.00;99718.69;5142189;28;20051;-72
2023/01/05 08:17:55;;;;;;;8.30;1.35;;;;;;;11.85;72.78;99693.13;5138673;28;20529;-71
2023/01/05 08:20:53;;;;;;;10.55;1.60;;;;;;;12.09;72.37;99716.72;5143555;28;20498;-71
2023/01/05 08:23:44;;;;;;;7.93;1.85;;;;;;;12.39;70.04;99703.34;5142494;28;20051;-70
2023/01/05 08:26:34;;;;;;;7.82;1.33;;;;;;;11.51;72.94;99719.97;5142735;28;20057;-72
2023/01/05 08:29:24;;;;;;;12.02;1.38;;;;;;;11.80;71.03;99724.56;5141510;28;20101;-72
2023/01/05 08:32:14;;;;;;;6.57;1.13;;;;;;;11.32;73.27;99730.47;5140691;28;20066;-72
2023/01/05 08:35:05;;;;;;;10.38;1.60;;;;;;;11.76;72.04;99726.66;5142872;28;20098;-69
2023/01/05 08:37:55;;;;;;;6.85;1.40;;;;;;;11.43;72.67;99725.09;5141777;28;20051;-72
2023/01/05 08:40:45;;;;;;;7.95;2.00;;;;;;;11.59;71.84;99741.41;5141431;28;20415;-71
2023/01/05 08:43:35;;;;;;;11.95;2.20;;;;;;;11.66;71.75;99747.88;5140924;28;20141;-72
2023/01/05 08:46:27;;;;;;;7.85;1.50;;;;;;;12.06;70.42;99738.28;5136294;28;20220;-72
2023/01/05 08:49:18;;;;;;;8.20;1.80;;;;;;;11.70;71.27;99759.06;5141994;28;20177;-74
2023/01/05 08:52:08;;;;;;;9.88;1.52;;;;;;;11.79;70.19;99760.94;5143110;28;20498;-74
2023/01/05 08:54:58;;;;;;;12.13;2.15;;;;;;;12.41;68.78;99770.53;5141811;28;20491;-74
2023/01/05 08:57:49;;;;;;;10.30;1.80;;;;;;;11.70;69.48;99764.38;5139732;28;20058;-74
2023/01/05 09:00:39;;;;;;;7.22;2.08;;;;;;;12.10;68.67;99767.09;5142321;28;20120;-71
2023/01/05 09:03:29;;;;;;;5.57;1.95;;;;;;;12.07;69.39;99780.66;5142560;28;20054;-72
2023/01/05 09:06:20;;;;;;;12.27;2.08;;;;;;;12.26;67.81;99784.38;5139150;28;20462;-74
2023/01/05 09:09:10;;;;;;;7.38;1.92;;;;;;;12.37;68.34;99782.44;5132806;28;20122;-72
2023/01/05 09:12:00;;;;;;;14.13;2.33;;;;;;;12.16;67.86;99761.25;5131263;28;20073;-75
2023/01/05 09:14:52;;;;;;;6.80;1.73;;;;;;;12.24;68.64;99784.47;5140059;28;20058;-73
2023/01/05 09:17:43;;;;;;;8.43;1.80;;;;;;;11.81;69.56;99784.69;5131261;28;20429;-74
2023/01/05 09:20:33;;;;;;;16.98;2.83;;;;;;;12.01;69.34;99793.63;5137175;28;20050;-74
2023/01/05 09:23:29;;;;;;;8.27;1.88;;;;;;;11.99;69.96;99781.31;5133604;28;20118;-74
2023/01/05 09:26:19;;;;;;;14.02;2.17;;;;;;;12.05;69.57;99785.25;5136869;28;20064;-72
2023/01/05 09:29:11;;;;;;;10.68;1.80;;;;;;;12.14;69.18;99794.25;5122670;28;20117;-72
2023/01/05 09:32:01;;;;;;;12.52;1.42;;;;;;;12.07;68.90;99777.16;5122357;29;20437;-70
2023/01/05 09:34:51;;;;;;;6.47;1.60;;;;;;;11.99;69.21;99802.59;5132474;28;20414;-71
2023/01/05 09:37:42;;;;;;;14.95;2.00;;;;;;;11.65;69.50;99809.91;5132024;28;20508;-71
2023/01/05 09:40:39;;;;;;;10.65;2.25;;;;;;;11.94;68.59;99812.75;5132376;28;20078;-71
2023/01/05 09:43:36;;;;;;;16.05;2.22;;;;;;;11.32;69.80;99816.25;5137943;28;20062;-70
2023/01/05 09:46:31;;;;;;;8.63;2.05;;;;;;;11.44;70.38;99812.59;5138810;28;20063;-70
2023/01/05 09:49:24;;;;;;;18.55;1.88;;;;;;;11.90;68.36;99818.50;5141407;28;20157;-70
2023/01/05 09:52:17;;;;;;;18.33;1.85;;;;;;;11.12;69.27;99830.34;5142031;28;20532;-69
2023/01/05 09:55:15;;;;;;;13.55;2.38;;;;;;;11.15;69.27;99822.97;5141854;28;20062;-70
2023/01/05 09:58:12;;;;;;;14.32;2.05;;;;;;;12.09;67.01;99821.25;5140790;28;20069;-70
2023/01/05 10:01:08;;;;;;;15.43;2.40;;;;;;;11.59;67.28;99814.91;5140208;28;20047;-69
2023/01/05 10:04:06;;;;;;;9.82;1.70;;;;;;;11.91;66.75;99822.81;5137190;28;20065;-71
2023/01/05 10:07:07;;;;;;;8.80;1.85;;;;;;;11.74;66.21;99821.56;5137264;28;20556;-71
2023/01/05 10:10:04;;;;;;;15.23;1.52;;;;;;;11.85;66.85;99821.53;5144596;28;20516;-68
2023/01/05 10:13:03;;;;;;;16.70;2.65;;;;;;;11.54;66.02;99817.97;5143640;28;20057;-69
2023/01/05 10:15:54;;;;;;;11.48;1.90;;;;;;;11.44;66.73;99825.84;5144406;28;20117;-69
2023/01/05 10:18:45;;;;;;;19.42;2.28;;;;;;;12.04;64.95;99819.94;5125238;29;20047;-70
2023/01/05 10:22:11;;;;;;;14.25;2.08;;;;;;;12.06;65.09;99812.69;5139198;28;20555;-70
2023/01/05 10:25:25;;;;;;;13.38;2.25;;;;;;;11.95;64.65;99808.28;5168113;28;20057;-69
2023/01/05 10:28:37;;;;;;;16.00;2.13;;;;;;;11.91;65.10;99809.53;5142344;28;20137;-70
2023/01/05 10:31:53;;;;;;;21.88;2.53;;;;;;;12.29;64.52;99805.38;5124249;29;20130;-70
2023/01/05 10:35:03;;;;;;;18.35;2.20;;;;;;;11.58;67.00;99807.91;5124863;29;20149;-69
2023/01/05 10:38:04;;;;;;;17.60;2.50;;;;;;;12.04;65.07;99804.84;5124328;29;20062;-68
2023/01/05 10:40:57;;;;;;;12.07;2.50;;;;;;;11.65;65.75;99803.75;5129544;28;20047;-69
2023/01/05 10:44:09;;;;;;;14.80;2.60;;;;;;;12.39;63.12;99811.56;5144491;28;20580;-70
2023/01/05 10:46:59;;;;;;;13.20;2.35;;;;;;;12.44;63.94;99811.97;5144230;28;20190;-69
2023/01/05 10:49:50;;;;;;;19.48;2.78;;;;;;;12.07;63.43;99796.59;5143109;28;20057;-69
2023/01/05 10:52:40;;;;;;;17.13;1.95;;;;;;;12.45;64.07;99793.25;5143078;28;20069;-69
2023/01/05 10:55:42;;;;;;;19.23;2.35;;;;;;;11.86;64.07;99795.81;5143623;28;20057;-69
2023/01/05 10:58:38;;;;;;;22.10;2.33;;;;;;;12.40;64.16;99807.91;5140689;28;20062;-69
2023/01/05 11:01:29;;;;;;;16.42;2.95;;;;;;;12.92;62.22;99805.91;5141053;28;20536;-69
2023/01/05 11:04:23;;;;;;;7.18;2.08;;;;;;;12.92;61.53;99803.25;5144064;28;20193;-69
2023/01/05 11:07:24;;;;;;;19.77;2.10;;;;;;;12.97;61.62;99797.50;5144205;28;20596;-69
2023/01/05 11:10:26;;;;;;;17.30;2.47;;;;;;;13.15;61.10;99810.00;5144161;28;20043;-69
2023/01/05 11:13:28;;;;;;;14.93;2.05;;;;;;;13.02;60.55;99804.09;5141014;28;20453;-70
2023/01/05 11:16:26;;;;;;;18.95;2.00;;;;;;;12.78;61.70;99799.19;5129306;28;20058;-70
2023/01/05 11:19:19;;;;;;;23.83;2.35;;;;;;;12.43;61.36;99799.66;5143410;28;20575;-69
2023/01/05 11:22:35;;;;;;;12.93;1.63;;;;;;;12.64;61.17;99802.22;5155477;28;20681;-69
2023/01/05 11:25:31;;;;;;;16.23;2.05;;;;;;;12.86;61.78;99801.16;5149047;28;20136;-70
2023/01/05 11:28:22;;;;;;;10.70;1.52;;;;;;;12.84;61.76;99792.44;5144036;28;20054;-69
2023/01/05 11:31:12;;;;;;;16.17;2.20;;;;;;;12.93;61.95;99807.59;5142057;28;20516;-70
2023/01/05 11:34:24;;;;;;;16.80;1.90;;;;;;;12.74;61.63;99778.28;5142284;28;20055;-70
2023/01/05 11:37:28;;;;;;;18.75;2.35;;;;;;;12.77;61.15;99807.28;5143580;28;20073;-69
2023/01/05 11:40:22;;;;;;;12.48;1.98;;;;;;;12.85;60.58;99807.47;5141646;28;20166;-69
2023/01/05 11:43:13;;;;;;;15.55;2.25;;;;;;;12.57;60.81;99817.88;5141754;28;20057;-70
2023/01/05 11:46:04;;;;;;;11.52;1.98;;;;;;;12.63;61.03;99817.34;5135960;28;20063;-70
2023/01/05 11:48:56;;;;;;;14.70;2.03;;;;;;;11.77;62.95;99800.06;5135970;28;20059;-70
2023/01/05 11:51:46;;;;;;;19.38;2.30;;;;;;;12.68;62.19;99819.59;5123226;29;20047;-69
2023/01/05 11:54:39;;;;;;;15.82;3.00;;;;;;;12.19;62.68;99811.50;5124153;29;20163;-69
2023/01/05 11:57:37;;;;;;;15.18;1.77;;;;;;;11.82;62.61;99807.63;5140573;28;20116;-69
2023/01/05 12:00:49;;;;;;;12.93;1.77;;;;;;;11.90;63.24;99811.34;5142006;28;20054;-69
2023/01/05 12:04:00;;;;;;;16.13;2.13;;;;;;;12.43;61.97;99810.31;5143312;28;20193;-70
2023/01/05 12:07:34;;;;;;;16.63;2.00;;;;;;;12.12;62.28;99767.81;5142008;28;20066;-70
2023/01/05 12:10:43;;;;;;;15.65;3.08;;;;;;;12.10;61.73;99796.34;5141900;28;20489;-70
2023/01/05 12:14:07;;;;;;;16.65;1.95;;;;;;;12.45;61.63;99800.38;5140644;28;20055;-68
2023/01/05 12:17:04;;;;;;;14.95;1.88;;;;;;;12.46;61.24;99789.59;5141788;28;20145;-69
2023/01/05 12:20:15;;;;;;;14.05;3.13;;;;;;;12.65;61.37;99807.44;5142829;28;20055;-69
2023/01/05 12:23:31;;;;;;;18.67;2.17;;;;;;;12.12;62.32;99797.06;5161616;28;20497;-68
2023/01/05 12:26:31;;;;;;;15.68;2.33;;;;;;;12.01;63.47;99810.41;5136904;28;20062;-69
2023/01/05 12:29:54;;;;;;;20.02;2.40;;;;;;;11.52;63.21;99807.47;5133045;28;20134;-69
2023/01/05 12:33:13;;;;;;;12.82;2.08;;;;;;;12.02;62.50;99804.16;5141962;28;20518;-70
2023/01/05 12:36:37;;;;;;;18.30;2.50;;;;;;;12.38;61.40;99793.91;5134805;28;20505;-69
2023/01/05 12:39:46;;;;;;;15.88;2.35;;;;;;;12.27;62.15;99804.66;5141467;28;20046;-72
2023/01/05 12:43:04;;;;;;;18.13;2.30;;;;;;;12.67;60.31;99813.44;5140064;28;20057;-68
2023/01/05 12:46:23;;;;;;;26.40;2.70;;;;;;;12.60;61.33;99814.97;5142366;28;20055;-68
2023/01/05 12:49:23;;;;;;;10.10;1.92;;;;;;;11.66;63.76;99806.31;5148026;28;20058;-69
2023/01/05 12:52:32;;;;;;;18.38;2.47;;;;;;;12.01;62.97;99815.72;5142367;28;20066;-68
2023/01/05 12:55:27;;;;;;;16.40;1.85;;;;;;;11.57;64.63;99814.22;5142309;28;20061;-68
2023/01/05 12:58:31;;;;;;;18.50;2.20;;;;;;;11.87;64.17;99818.75;5141819;28;20148;-70
2023/01/05 13:01:27;;;;;;;22.88;2.17;;;;;;;11.50;64.73;99829.81;5140937;28;20050;-70
2023/01/05 13:04:33;;;;;;;18.42;3.15;;;;;;;11.69;64.65;99835.25;5142327;28;20050;-69
2023/01/05 13:07:32;;;;;;;18.30;2.22;;;;;;;12.36;62.47;99825.13;5136175;28;20081;-70
2023/01/05 13:10:29;;;;;;;19.50;2.50;;;;;;;12.52;61.70;99822.78;5142057;28;20641;-70
2023/01/05 13:13:27;;;;;;;15.55;2.38;;;;;;;12.14;62.37;99811.03;5137083;28;20131;-71
2023/01/05 13:16:37;;;;;;;22.45;2.40;;;;;;;12.36;61.80;99803.84;5141200;28;20051;-72
2023/01/05 13:19:44;;;;;;;22.55;2.88;;;;;;;12.31;62.57;99816.69;5133824;28;20054;-70
2023/01/05 13:22:38;;;;;;;19.70;2.45;;;;;;;12.45;61.58;99816.34;5132939;28;20062;-70
2023/01/05 13:25:35;;;;;;;12.38;2.28;;;;;;;12.10;61.87;99816.75;5128679;28;20181;-70
2023/01/05 13:28:25;;;;;;;18.83;2.50;;;;;;;12.70;61.44;99821.13;5132979;28;20062;-70
2023/01/05 13:31:48;;;;;;;22.67;2.13;;;;;;;12.27;61.43;99815.28;5133506;28;20073;-71
2023/01/05 13:35:09;;;;;;;14.68;2.25;;;;;;;12.10;62.24;99822.06;5130381;28;20733;-71
2023/01/05 13:38:31;;;;;;;16.08;2.50;;;;;;;11.91;62.99;99804.22;5137198;28;20487;-70
2023/01/05 13:41:49;;;;;;;16.88;3.15;;;;;;;11.74;63.61;99827.72;5131362;28;20137;-70
2023/01/05 13:44:53;;;;;;;13.75;2.55;;;;;;;11.55;64.37;99827.59;5139759;28;20145;-70
2023/01/05 13:48:06;;;;;;;21.77;3.92;;;;;;;12.49;62.65;99822.22;5141172;28;20062;-70
2023/01/05 13:51:24;;;;;;;15.05;2.47;;;;;;;12.69;61.55;99827.44;5139557;28;20140;-71
2023/01/05 13:54:37;;;;;;;19.05;2.03;;;;;;;12.63;61.48;99827.16;5138883;28;20069;-70
2023/01/05 13:57:42;;;;;;;19.65;3.03;;;;;;;12.19;61.97;99806.16;5153157;28;20058;-69
2023/01/05 14:00:36;;;;;;;15.73;1.80;;;;;;;11.96;62.19;99808.16;5143875;28;20053;-70
2023/01/05 14:03:31;;;;;;;15.55;2.00;;;;;;;11.95;62.77;99800.31;5141642;28;20121;-70
2023/01/05 14:06:28;;;;;;;13.43;2.47;;;;;;;12.41;61.43;99812.25;5129459;28;20471;-69
2023/01/05 14:09:34;;;;;;;14.10;1.98;;;;;;;12.19;61.50;99819.47;5143799;28;20058;-69
2023/01/05 14:12:41;;;;;;;18.50;2.78;;;;;;;12.39;60.45;99824.84;5142380;28;20051;-69
2023/01/05 14:15:41;;;;;;;13.77;2.50;;;;;;;12.72;59.26;99820.19;5141338;28;20524;-69